• Join FlightAware (Why Join?)
  • Login
  • US Flag 
 
06:17AM EST


 

Airport Tracker/Info


-or-


 

Live Flight TrackerFlight Track Log ✈ ASQ4252 ✈ 18-Jul-2013 ✈ KXNA - KORD

Flight Track Log - Related Links

Times and Time Zones

All times are in EDT time to prevent confusion due to time zone crossing. See the ASQ4252 flight status page for this flight to view local times or setup timezone preferences in your user account.

Time Position Orientation Groundspeed Altitude Reporting Facility
EDT Latitude Longitude Course Direction KTS MPH feet Rate Location/Type
11:05AM 36.2353 -94.3039 351° North 184 212 35,000  Level Kansas City Center
11:07AM 36.1942 -94.3464 220° Southwest 192 221 35,000 -10,920 Level Kansas City Center
11:08AM 36.3542 -94.3725 353° North 332 382 7,800 -10,020 Descending Kansas City Center
11:09AM 36.6126 -94.3709 345° North  Level FlightAware Approximate
11:09AM 36.4300 -94.3822 354° North 279 321 10,300  Level Kansas City Center
11:10AM 36.6986 -94.3930 351° North  Level FlightAware Approximate
11:10AM 36.5192 -94.3953 353° North 301 346 11,100  Level Kansas City Center
11:11AM 36.7853 -94.4104 351° North  Level FlightAware Approximate
11:11AM 36.6228 -94.4100 353° North 340 391 12,300  Level Kansas City Center
11:12AM 36.7308 -94.4206 356° North 378 435 14,000 1,680 Climbing Kansas City Center
11:13AM 36.8336 -94.4058 North 377 434 15,800 1,620 Climbing Kansas City Center
11:14AM 36.9064 -94.2933 51° Northeast 377 434 17,400 1,260 Climbing Kansas City Center
11:15AM 36.9619 -94.1806 58° Northeast 380 437 18,500 1,200 Climbing Kansas City Center
11:16AM 37.0158 -94.0653 60° Northeast 383 441 19,900 1,320 Climbing Kansas City Center
11:17AM 37.0697 -93.9494 60° Northeast 384 442 21,300 1,500 Climbing Kansas City Center
11:18AM 37.1347 -93.8111 59° Northeast 385 443 23,000 1,440 Climbing Kansas City Center
11:19AM 37.1883 -93.6969 59° Northeast 383 441 24,400 1,200 Climbing Kansas City Center
11:20AM 37.2422 -93.5817 60° Northeast 382 440 25,600 1,140 Climbing Kansas City Center
11:21AM 37.2986 -93.4642 59° Northeast 392 451 26,800 1,140 Climbing Kansas City Center
11:22AM 37.3528 -93.3444 60° Northeast 388 447 28,000 1,080 Climbing Kansas City Center
11:24AM 37.4408 -93.2561 39° Northeast 407 468 29,200 1,140 Climbing Kansas City Center
11:25AM 37.5314 -93.1731 36° Northeast 402 463 30,400 1,260 Climbing Kansas City Center
11:26AM 37.6400 -93.0731 36° Northeast 401 461 31,800 1,200 Climbing Kansas City Center
11:27AM 37.7311 -92.9889 36° Northeast 403 464 32,900 960 Climbing Kansas City Center
11:28AM 37.8228 -92.9014 37° Northeast 405 466 33,900 960 Climbing Kansas City Center
11:29AM 37.9169 -92.8131 36° Northeast 415 478 34,900 480 Climbing Kansas City Center
11:30AM 38.0089 -92.7258 37° Northeast 426 490 35,000  Climbing Kansas City Center
11:31AM 38.1100 -92.6314 36° Northeast 447 514 35,000  Level Kansas City Center
11:32AM 38.2239 -92.5253 36° Northeast 466 536 35,000  Level Kansas City Center
11:33AM 38.3308 -92.4225 37° Northeast 474 545 35,000  Level Kansas City Center
11:34AM 38.4611 -92.2978 37° Northeast 481 554 35,000  Level Kansas City Center
11:35AM 38.5681 -92.1944 37° Northeast 480 552 35,000  Level Kansas City Center
11:36AM 38.6739 -92.0944 36° Northeast 474 545 35,000  Level Kansas City Center
11:37AM 38.7806 -91.9919 37° Northeast 476 548 35,000  Level Kansas City Center
11:38AM 38.8844 -91.8889 38° Northeast 473 544 35,000  Level Kansas City Center
11:39AM 38.9908 -91.7872 37° Northeast 473 544 35,000  Level Kansas City Center
11:40AM 39.1067 -91.6742 37° Northeast 478 550 35,000  Level Kansas City Center
11:41AM 39.2131 -91.5708 37° Northeast 478 550 35,000  Level Kansas City Center
11:42AM 39.3211 -91.4664 37° Northeast 482 555 35,000  Level Kansas City Center
11:43AM 39.4272 -91.3597 38° Northeast 483 556 35,000  Level Kansas City Center
11:44AM 39.5339 -91.2547 37° Northeast 482 555 35,000  Level Kansas City Center
11:45AM 39.6611 -91.1281 37° Northeast 480 552 35,000 -420 Level Kansas City Center
11:46AM 39.7603 -91.0297 37° Northeast 481 554 34,200 -1,020 Descending Kansas City Center
11:47AM 39.8817 -90.9078 38° Northeast 483 556 33,000 -600 Descending Kansas City Center
11:48AM 39.9869 -90.8025 37° Northeast 480 552 33,000  Level Kansas City Center
11:49AM 40.0908 -90.6947 38° Northeast 477 549 33,000  Level Kansas City Center
11:50AM 40.1958 -90.5897 37° Northeast 475 547 33,000  Level Kansas City Center
11:51AM 40.2994 -90.4847 38° Northeast 473 544 33,000  Level Kansas City Center
11:52AM 40.4017 -90.3769 39° Northeast 472 543 33,000  Level Kansas City Center
11:53AM 40.5050 -90.2717 38° Northeast 469 540 33,000 -840 Level Kansas City Center
11:55AM 40.6250 -90.1483 38° Northeast 471 542 31,300 -1,560 Descending Kansas City Center
11:56AM 40.7225 -90.0494 38° Northeast 456 525 29,800 -1,500 Descending Kansas City Center
11:57AM 40.8378 -89.9322 38° Northeast 473 544 28,200 -1,680 Descending Kansas City Center
11:58AM 40.9872 -89.7717 39° Northeast 478 550 25,600 -1,680 Descending Chicago Center
11:59AM 41.0878 -89.6653 39° Northeast 474 545 24,000 -780 Descending Chicago Center
12:00PM 41.1775 -89.5436 46° Northeast 465 535 24,000 -960 Level Chicago Center
12:01PM 41.2489 -89.3669 62° Northeast 453 521 22,100 -2,280 Descending Chicago Center
12:02PM 41.3047 -89.2286 62° Northeast 435 501 19,400 -2,520 Descending Chicago Center
12:03PM 41.3578 -89.0981 62° Northeast 416 479 16,900 -2,580 Descending Chicago Center
12:04PM 41.4086 -88.9669 63° Northeast 403 464 14,100 -2,580 Descending Chicago Center
12:05PM 41.4583 -88.8419 62° Northeast 386 444 11,600 -1,500 Descending Chicago Center
12:06PM 41.5150 -88.6992 62° Northeast 365 420 11,000 -300 Descending Chicago Center
12:07PM 41.5625 -88.5789 62° Northeast 367 422 11,000  Level Chicago Center
12:08PM 41.6131 -88.4586 61° Northeast 370 426 11,000 -300 Level Chicago Center
12:09PM 41.6747 -88.3511 52° Northeast 366 421 10,500 -540 Descending Chicago Center
12:10PM 41.7328 -88.2528 52° Northeast 335 386 9,900 -1,020 Descending Chicago Center
12:12PM 41.7817 -88.1689 52° Northeast 288 331 8,400 -1,260 Descending Chicago Center
12:13PM 41.8367 -88.0739 52° Northeast 268 308 7,300 -720 Descending Chicago Center
12:14PM 41.8767 -88.0022 53° Northeast 243 280 7,000 -180 Descending Chicago Center
12:14PM 41.8833 -87.9167 84° East 252 290 7,000  Level Chicago TRACON
12:16PM 41.8842 -87.8225 89° East 242 278 7,000 -480 Level Chicago Center
12:17PM 41.8836 -87.7300 90° East 245 282 6,000 -1,380 Descending Chicago Center
12:18PM 41.9036 -87.6525 71° East 246 283 4,200 -1,800 Descending Chicago Center